sensor_id;sensor_type;location;lat;lon;timestamp;pressure;altitude;pressure_sealevel;temperature;humidity
10115;BME280;5097;43.260;27.812;2022-12-28T00:01:04;101136.03;;;9.67;71.19
10115;BME280;5097;43.260;27.812;2022-12-28T00:03:49;101139.06;;;9.55;70.72
10115;BME280;5097;43.260;27.812;2022-12-28T00:06:33;101155.28;;;9.43;71.19
10115;BME280;5097;43.260;27.812;2022-12-28T00:09:17;101180.44;;;9.26;72.22
10115;BME280;5097;43.260;27.812;2022-12-28T00:12:01;101189.78;;;9.06;72.86
10115;BME280;5097;43.260;27.812;2022-12-28T00:14:46;101189.34;;;9.22;72.05
10115;BME280;5097;43.260;27.812;2022-12-28T00:17:30;101149.25;;;8.81;72.09
10115;BME280;5097;43.260;27.812;2022-12-28T00:20:14;101083.69;;;8.09;72.80
10115;BME280;5097;43.260;27.812;2022-12-28T00:22:57;101188.81;;;8.48;73.47
10115;BME280;5097;43.260;27.812;2022-12-28T00:25:41;101205.44;;;8.50;73.83
10115;BME280;5097;43.260;27.812;2022-12-28T00:28:25;101199.09;;;8.24;74.53
10115;BME280;5097;43.260;27.812;2022-12-28T00:31:10;101190.44;;;8.19;74.69
10115;BME280;5097;43.260;27.812;2022-12-28T00:33:54;101181.38;;;7.96;74.60
10115;BME280;5097;43.260;27.812;2022-12-28T00:36:38;101208.47;;;7.64;76.08
10115;BME280;5097;43.260;27.812;2022-12-28T00:39:43;101212.28;;;7.88;74.72
10115;BME280;5097;43.260;27.812;2022-12-28T00:42:29;101226.66;;;7.35;76.57
10115;BME280;5097;43.260;27.812;2022-12-28T00:45:13;101221.50;;;7.29;76.89
10115;BME280;5097;43.260;27.812;2022-12-28T00:48:00;101230.31;;;7.27;76.98
10115;BME280;5097;43.260;27.812;2022-12-28T00:50:44;101224.66;;;7.04;77.47
10115;BME280;5097;43.260;27.812;2022-12-28T00:53:28;101208.88;;;7.04;76.96
10115;BME280;5097;43.260;27.812;2022-12-28T00:56:12;101232.59;;;7.44;76.16
10115;BME280;5097;43.260;27.812;2022-12-28T00:58:58;101228.22;;;7.43;75.63
10115;BME280;5097;43.260;27.812;2022-12-28T01:01:42;101243.81;;;7.10;76.87
10115;BME280;5097;43.260;27.812;2022-12-28T01:04:27;101231.56;;;7.10;76.32
10115;BME280;5097;43.260;27.812;2022-12-28T01:07:11;101231.75;;;7.01;75.33
10115;BME280;5097;43.260;27.812;2022-12-28T01:09:55;101242.22;;;7.02;75.58
10115;BME280;5097;43.260;27.812;2022-12-28T01:12:39;101227.69;;;6.84;76.19
10115;BME280;5097;43.260;27.812;2022-12-28T01:15:23;101237.97;;;6.97;76.43
10115;BME280;5097;43.260;27.812;2022-12-28T01:18:07;101238.22;;;6.83;76.62
10115;BME280;5097;43.260;27.812;2022-12-28T01:20:55;101266.16;;;6.87;76.29
10115;BME280;5097;43.260;27.812;2022-12-28T01:23:39;101285.97;;;6.58;76.85
10115;BME280;5097;43.260;27.812;2022-12-28T01:26:24;101291.25;;;6.57;77.46
10115;BME280;5097;43.260;27.812;2022-12-28T01:29:10;101292.31;;;6.45;77.29
10115;BME280;5097;43.260;27.812;2022-12-28T01:31:53;101287.84;;;6.51;76.65
10115;BME280;5097;43.260;27.812;2022-12-28T01:34:37;101283.91;;;6.26;76.63
10115;BME280;5097;43.260;27.812;2022-12-28T01:37:23;101289.00;;;6.33;75.65
10115;BME280;5097;43.260;27.812;2022-12-28T01:40:08;101293.34;;;6.36;74.99
10115;BME280;5097;43.260;27.812;2022-12-28T01:42:55;101294.50;;;6.19;74.87
10115;BME280;5097;43.260;27.812;2022-12-28T01:45:41;101263.44;;;5.90;74.29
10115;BME280;5097;43.260;27.812;2022-12-28T01:48:27;101311.84;;;6.28;73.97
10115;BME280;5097;43.260;27.812;2022-12-28T01:51:11;101310.53;;;5.99;74.09
10115;BME280;5097;43.260;27.812;2022-12-28T01:53:57;101320.06;;;6.05;73.32
10115;BME280;5097;43.260;27.812;2022-12-28T01:56:43;101314.91;;;6.00;73.48
10115;BME280;5097;43.260;27.812;2022-12-28T01:59:29;101308.97;;;5.86;73.55
10115;BME280;5097;43.260;27.812;2022-12-28T02:02:14;101294.00;;;5.93;72.54
10115;BME280;5097;43.260;27.812;2022-12-28T02:04:59;101297.53;;;5.90;73.30
10115;BME280;5097;43.260;27.812;2022-12-28T02:07:48;101289.81;;;5.81;73.45
10115;BME280;5097;43.260;27.812;2022-12-28T02:10:36;101279.59;;;5.61;72.54
10115;BME280;5097;43.260;27.812;2022-12-28T02:13:27;101293.38;;;5.75;72.10
10115;BME280;5097;43.260;27.812;2022-12-28T02:16:31;101282.16;;;5.65;71.69
10115;BME280;5097;43.260;27.812;2022-12-28T02:19:26;101300.72;;;5.50;71.91
10115;BME280;5097;43.260;27.812;2022-12-28T02:26:13;101314.81;;;5.40;71.42
10115;BME280;5097;43.260;27.812;2022-12-28T02:32:39;101298.25;;;5.37;70.88
10115;BME280;5097;43.260;27.812;2022-12-28T02:35:34;101298.16;;;5.47;71.19
10115;BME280;5097;43.260;27.812;2022-12-28T02:38:24;101311.44;;;5.31;72.46
10115;BME280;5097;43.260;27.812;2022-12-28T02:41:13;101316.09;;;5.06;73.39
10115;BME280;5097;43.260;27.812;2022-12-28T02:43:59;101293.16;;;5.27;73.49
10115;BME280;5097;43.260;27.812;2022-12-28T02:46:47;101241.34;;;4.77;73.35
10115;BME280;5097;43.260;27.812;2022-12-28T02:49:48;101306.59;;;4.97;73.89
10115;BME280;5097;43.260;27.812;2022-12-28T02:56:12;101330.19;;;4.94;73.13
10115;BME280;5097;43.260;27.812;2022-12-28T02:59:18;101323.19;;;4.96;72.91
10115;BME280;5097;43.260;27.812;2022-12-28T03:02:30;101331.91;;;4.95;73.26
10115;BME280;5097;43.260;27.812;2022-12-28T03:05:23;101322.44;;;4.82;73.65
10115;BME280;5097;43.260;27.812;2022-12-28T03:08:35;101333.72;;;4.89;73.10
10115;BME280;5097;43.260;27.812;2022-12-28T03:11:26;101316.50;;;4.69;72.92
10115;BME280;5097;43.260;27.812;2022-12-28T03:14:18;101345.28;;;4.67;73.36
10115;BME280;5097;43.260;27.812;2022-12-28T03:17:07;101368.69;;;4.83;72.74
10115;BME280;5097;43.260;27.812;2022-12-28T03:20:15;101365.25;;;4.78;72.66
10115;BME280;5097;43.260;27.812;2022-12-28T03:23:20;101379.25;;;4.75;72.71
10115;BME280;5097;43.260;27.812;2022-12-28T03:26:23;101391.34;;;4.87;72.04
10115;BME280;5097;43.260;27.812;2022-12-28T03:29:25;101368.00;;;4.65;72.17
10115;BME280;5097;43.260;27.812;2022-12-28T03:32:29;101375.00;;;4.60;72.62
10115;BME280;5097;43.260;27.812;2022-12-28T03:35:14;101377.44;;;4.80;71.99
10115;BME280;5097;43.260;27.812;2022-12-28T03:38:00;101374.84;;;4.80;71.50
10115;BME280;5097;43.260;27.812;2022-12-28T03:40:48;101374.13;;;4.63;70.99
10115;BME280;5097;43.260;27.812;2022-12-28T03:43:41;101363.50;;;4.77;70.16
10115;BME280;5097;43.260;27.812;2022-12-28T03:46:35;101381.66;;;4.97;68.99
10115;BME280;5097;43.260;27.812;2022-12-28T03:49:23;101394.78;;;4.94;67.75
10115;BME280;5097;43.260;27.812;2022-12-28T03:52:10;101393.75;;;5.09;66.76
10115;BME280;5097;43.260;27.812;2022-12-28T03:54:55;101376.25;;;5.14;66.33
10115;BME280;5097;43.260;27.812;2022-12-28T03:57:39;101395.66;;;4.93;66.78
10115;BME280;5097;43.260;27.812;2022-12-28T04:00:29;101406.97;;;4.98;65.86
10115;BME280;5097;43.260;27.812;2022-12-28T04:03:13;101407.69;;;5.14;65.89
10115;BME280;5097;43.260;27.812;2022-12-28T04:05:57;101423.28;;;5.26;64.59
10115;BME280;5097;43.260;27.812;2022-12-28T04:08:44;101381.34;;;5.29;65.44
10115;BME280;5097;43.260;27.812;2022-12-28T04:11:28;101250.31;;;4.55;65.36
10115;BME280;5097;43.260;27.812;2022-12-28T04:14:13;101419.38;;;5.64;64.90
10115;BME280;5097;43.260;27.812;2022-12-28T04:16:58;101415.91;;;5.62;65.02
10115;BME280;5097;43.260;27.812;2022-12-28T04:19:42;101410.63;;;5.65;65.17
10115;BME280;5097;43.260;27.812;2022-12-28T04:22:26;101423.97;;;5.45;64.29
10115;BME280;5097;43.260;27.812;2022-12-28T04:25:14;101428.38;;;5.42;64.65
10115;BME280;5097;43.260;27.812;2022-12-28T04:27:58;101422.88;;;5.63;64.09
10115;BME280;5097;43.260;27.812;2022-12-28T04:31:10;101272.03;;;4.64;64.32
10115;BME280;5097;43.260;27.812;2022-12-28T04:33:59;101435.09;;;5.66;63.44
10115;BME280;5097;43.260;27.812;2022-12-28T04:36:46;101437.06;;;5.47;62.33
10115;BME280;5097;43.260;27.812;2022-12-28T04:39:33;101452.09;;;5.29;62.94
10115;BME280;5097;43.260;27.812;2022-12-28T04:42:39;101457.09;;;5.52;61.83
10115;BME280;5097;43.260;27.812;2022-12-28T04:45:22;101305.22;;;4.62;63.15
10115;BME280;5097;43.260;27.812;2022-12-28T04:48:06;101457.09;;;5.51;62.84
10115;BME280;5097;43.260;27.812;2022-12-28T04:50:50;101465.53;;;5.78;62.36
10115;BME280;5097;43.260;27.812;2022-12-28T04:53:38;101429.91;;;5.61;63.20
10115;BME280;5097;43.260;27.812;2022-12-28T04:56:24;101472.31;;;5.99;61.21
10115;BME280;5097;43.260;27.812;2022-12-28T04:59:09;101492.44;;;5.95;62.23
10115;BME280;5097;43.260;27.812;2022-12-28T05:01:55;101449.59;;;5.93;60.97
10115;BME280;5097;43.260;27.812;2022-12-28T05:04:38;101474.94;;;5.94;61.52
10115;BME280;5097;43.260;27.812;2022-12-28T05:07:22;101478.66;;;5.78;62.78
10115;BME280;5097;43.260;27.812;2022-12-28T05:10:07;101484.50;;;6.04;62.58
10115;BME280;5097;43.260;27.812;2022-12-28T05:12:51;101454.03;;;5.91;61.77
10115;BME280;5097;43.260;27.812;2022-12-28T05:15:36;101392.69;;;5.30;61.72
10115;BME280;5097;43.260;27.812;2022-12-28T05:18:20;101476.75;;;5.91;62.34
10115;BME280;5097;43.260;27.812;2022-12-28T05:21:05;101494.47;;;5.70;61.79
10115;BME280;5097;43.260;27.812;2022-12-28T05:23:50;101493.78;;;5.52;63.30
10115;BME280;5097;43.260;27.812;2022-12-28T05:26:34;101456.81;;;5.76;61.45
10115;BME280;5097;43.260;27.812;2022-12-28T05:29:18;101503.44;;;6.25;60.88
10115;BME280;5097;43.260;27.812;2022-12-28T05:32:04;101502.53;;;6.29;62.27
10115;BME280;5097;43.260;27.812;2022-12-28T05:34:48;101472.91;;;6.21;62.63
10115;BME280;5097;43.260;27.812;2022-12-28T05:37:32;101503.94;;;6.55;62.13
10115;BME280;5097;43.260;27.812;2022-12-28T05:40:16;101493.66;;;6.38;60.67
10115;BME280;5097;43.260;27.812;2022-12-28T05:42:59;101502.19;;;6.54;60.45
10115;BME280;5097;43.260;27.812;2022-12-28T05:45:43;101521.25;;;6.68;60.12
10115;BME280;5097;43.260;27.812;2022-12-28T05:48:31;101513.63;;;6.50;60.00
10115;BME280;5097;43.260;27.812;2022-12-28T05:51:17;101499.69;;;6.46;60.70
10115;BME280;5097;43.260;27.812;2022-12-28T05:54:01;101497.19;;;6.35;59.80
10115;BME280;5097;43.260;27.812;2022-12-28T05:56:48;101534.00;;;6.32;59.90
10115;BME280;5097;43.260;27.812;2022-12-28T05:59:32;101538.06;;;6.53;59.45
10115;BME280;5097;43.260;27.812;2022-12-28T06:02:16;101534.28;;;6.75;61.03
10115;BME280;5097;43.260;27.812;2022-12-28T06:05:08;101541.84;;;6.96;59.59
10115;BME280;5097;43.260;27.812;2022-12-28T06:07:52;101530.50;;;6.94;59.34
10115;BME280;5097;43.260;27.812;2022-12-28T06:10:35;101538.03;;;7.16;58.81
10115;BME280;5097;43.260;27.812;2022-12-28T06:13:19;101547.84;;;7.06;57.77
10115;BME280;5097;43.260;27.812;2022-12-28T06:16:07;101555.00;;;6.95;58.48
10115;BME280;5097;43.260;27.812;2022-12-28T06:18:52;101553.75;;;7.19;58.68
10115;BME280;5097;43.260;27.812;2022-12-28T06:21:38;101563.09;;;7.37;55.54
10115;BME280;5097;43.260;27.812;2022-12-28T06:24:22;101557.56;;;6.99;56.03
10115;BME280;5097;43.260;27.812;2022-12-28T06:27:06;101554.72;;;6.51;58.03
10115;BME280;5097;43.260;27.812;2022-12-28T06:29:50;101564.13;;;5.94;58.51
10115;BME280;5097;43.260;27.812;2022-12-28T06:32:33;101559.25;;;5.57;59.61
10115;BME280;5097;43.260;27.812;2022-12-28T06:35:17;101564.56;;;5.51;60.39
10115;BME280;5097;43.260;27.812;2022-12-28T06:38:03;101565.56;;;5.36;60.10
10115;BME280;5097;43.260;27.812;2022-12-28T06:40:46;101566.53;;;5.24;60.67
10115;BME280;5097;43.260;27.812;2022-12-28T06:43:50;101548.16;;;5.29;60.47
10115;BME280;5097;43.260;27.812;2022-12-28T06:46:35;101561.31;;;5.24;60.91
10115;BME280;5097;43.260;27.812;2022-12-28T06:49:19;101544.72;;;5.20;61.55
10115;BME280;5097;43.260;27.812;2022-12-28T06:52:03;101557.81;;;5.25;60.68
10115;BME280;5097;43.260;27.812;2022-12-28T06:54:48;101567.38;;;5.29;60.70
10115;BME280;5097;43.260;27.812;2022-12-28T06:57:32;101578.59;;;5.44;59.59
10115;BME280;5097;43.260;27.812;2022-12-28T07:00:16;101462.97;;;4.83;60.31
10115;BME280;5097;43.260;27.812;2022-12-28T07:03:00;101575.06;;;5.46;59.94
10115;BME280;5097;43.260;27.812;2022-12-28T07:05:44;101575.09;;;5.45;59.67
10115;BME280;5097;43.260;27.812;2022-12-28T07:08:28;101580.22;;;5.57;59.56
10115;BME280;5097;43.260;27.812;2022-12-28T07:11:15;101582.03;;;5.50;59.45
10115;BME280;5097;43.260;27.812;2022-12-28T07:13:59;101586.28;;;5.67;59.42
10115;BME280;5097;43.260;27.812;2022-12-28T07:16:43;101583.59;;;5.71;58.67
10115;BME280;5097;43.260;27.812;2022-12-28T07:19:27;101551.44;;;5.52;58.63
10115;BME280;5097;43.260;27.812;2022-12-28T07:22:11;101574.81;;;5.76;58.06
10115;BME280;5097;43.260;27.812;2022-12-28T07:24:54;101596.63;;;5.81;58.32
10115;BME280;5097;43.260;27.812;2022-12-28T07:27:40;101595.56;;;5.97;58.13
10115;BME280;5097;43.260;27.812;2022-12-28T07:30:24;101590.25;;;6.07;57.95
10115;BME280;5097;43.260;27.812;2022-12-28T07:33:08;101608.59;;;6.11;57.36
10115;BME280;5097;43.260;27.812;2022-12-28T07:35:51;101589.47;;;6.00;56.72
10115;BME280;5097;43.260;27.812;2022-12-28T07:38:35;101597.09;;;6.23;57.49
10115;BME280;5097;43.260;27.812;2022-12-28T07:41:21;101609.44;;;6.12;56.85
10115;BME280;5097;43.260;27.812;2022-12-28T07:44:07;101577.81;;;6.24;56.14
10115;BME280;5097;43.260;27.812;2022-12-28T07:46:50;101600.94;;;6.66;56.13
10115;BME280;5097;43.260;27.812;2022-12-28T07:49:34;101596.75;;;6.51;55.20
10115;BME280;5097;43.260;27.812;2022-12-28T07:52:18;101585.94;;;6.76;54.75
10115;BME280;5097;43.260;27.812;2022-12-28T07:55:02;101598.03;;;6.87;53.87
10115;BME280;5097;43.260;27.812;2022-12-28T07:57:46;101608.44;;;6.95;52.90
10115;BME280;5097;43.260;27.812;2022-12-28T08:00:31;101609.09;;;7.08;52.01
10115;BME280;5097;43.260;27.812;2022-12-28T08:03:15;101606.22;;;7.25;52.59
10115;BME280;5097;43.260;27.812;2022-12-28T08:06:07;101617.72;;;7.16;51.35
10115;BME280;5097;43.260;27.812;2022-12-28T08:08:54;101608.75;;;7.33;51.31
10115;BME280;5097;43.260;27.812;2022-12-28T08:11:39;101614.34;;;7.10;49.53
10115;BME280;5097;43.260;27.812;2022-12-28T08:14:23;101619.34;;;7.27;48.84
10115;BME280;5097;43.260;27.812;2022-12-28T08:17:08;101624.53;;;7.33;48.72
10115;BME280;5097;43.260;27.812;2022-12-28T08:20:00;101619.44;;;7.75;48.40
10115;BME280;5097;43.260;27.812;2022-12-28T08:22:45;101625.75;;;7.63;49.06
10115;BME280;5097;43.260;27.812;2022-12-28T08:25:28;101631.94;;;7.62;49.30
10115;BME280;5097;43.260;27.812;2022-12-28T08:28:12;101625.91;;;8.05;48.42
10115;BME280;5097;43.260;27.812;2022-12-28T08:30:56;101623.47;;;7.95;49.13
10115;BME280;5097;43.260;27.812;2022-12-28T08:33:41;101626.88;;;8.01;52.41
10115;BME280;5097;43.260;27.812;2022-12-28T08:36:26;101611.75;;;8.11;50.96
10115;BME280;5097;43.260;27.812;2022-12-28T08:39:10;101623.34;;;8.01;49.03
10115;BME280;5097;43.260;27.812;2022-12-28T08:41:54;101585.75;;;7.94;49.61
10115;BME280;5097;43.260;27.812;2022-12-28T08:44:38;101611.56;;;8.22;49.00
10115;BME280;5097;43.260;27.812;2022-12-28T08:47:22;101601.19;;;8.13;48.30
10115;BME280;5097;43.260;27.812;2022-12-28T08:50:08;101614.38;;;8.11;48.15
10115;BME280;5097;43.260;27.812;2022-12-28T08:52:53;101617.00;;;8.13;48.85
10115;BME280;5097;43.260;27.812;2022-12-28T08:55:37;101618.78;;;8.11;48.84
10115;BME280;5097;43.260;27.812;2022-12-28T08:58:21;101606.63;;;8.03;48.30
10115;BME280;5097;43.260;27.812;2022-12-28T09:01:06;101607.88;;;8.31;49.49
10115;BME280;5097;43.260;27.812;2022-12-28T09:03:53;101605.00;;;8.43;46.27
10115;BME280;5097;43.260;27.812;2022-12-28T09:06:38;101580.50;;;8.82;46.67
10115;BME280;5097;43.260;27.812;2022-12-28T09:09:22;101597.13;;;8.84;46.97
10115;BME280;5097;43.260;27.812;2022-12-28T09:12:06;101599.38;;;9.38;45.38
10115;BME280;5097;43.260;27.812;2022-12-28T09:14:50;101598.91;;;9.21;45.19
10115;BME280;5097;43.260;27.812;2022-12-28T09:17:34;101596.66;;;9.42;44.30
10115;BME280;5097;43.260;27.812;2022-12-28T09:20:17;101602.81;;;9.04;45.60
10115;BME280;5097;43.260;27.812;2022-12-28T09:23:03;101571.16;;;9.06;45.49
10115;BME280;5097;43.260;27.812;2022-12-28T09:25:47;101606.53;;;9.69;44.14
10115;BME280;5097;43.260;27.812;2022-12-28T09:28:31;101595.56;;;9.85;42.22
10115;BME280;5097;43.260;27.812;2022-12-28T09:31:15;101583.72;;;9.32;42.35
10115;BME280;5097;43.260;27.812;2022-12-28T09:33:59;101606.69;;;9.63;42.28
10115;BME280;5097;43.260;27.812;2022-12-28T09:37:04;101580.44;;;10.23;41.39
10115;BME280;5097;43.260;27.812;2022-12-28T09:39:49;101594.84;;;10.13;39.47
10115;BME280;5097;43.260;27.812;2022-12-28T09:42:40;101582.84;;;9.66;39.38
10115;BME280;5097;43.260;27.812;2022-12-28T09:45:25;101594.72;;;9.50;40.23
10115;BME280;5097;43.260;27.812;2022-12-28T09:48:13;101580.50;;;9.88;40.63
10115;BME280;5097;43.260;27.812;2022-12-28T09:50:58;101590.38;;;10.76;38.34
10115;BME280;5097;43.260;27.812;2022-12-28T09:53:42;101569.72;;;10.89;37.73
10115;BME280;5097;43.260;27.812;2022-12-28T09:56:33;101582.44;;;11.04;36.56
10115;BME280;5097;43.260;27.812;2022-12-28T09:59:19;101577.94;;;10.80;37.59
10115;BME280;5097;43.260;27.812;2022-12-28T10:02:15;101583.47;;;10.72;37.47
10115;BME280;5097;43.260;27.812;2022-12-28T10:05:01;101584.00;;;11.38;36.44
10115;BME280;5097;43.260;27.812;2022-12-28T10:07:45;101565.13;;;11.74;36.50
10115;BME280;5097;43.260;27.812;2022-12-28T10:10:29;101562.66;;;10.61;36.09
10115;BME280;5097;43.260;27.812;2022-12-28T10:13:17;101556.47;;;10.31;36.26
10115;BME280;5097;43.260;27.812;2022-12-28T10:16:23;101570.56;;;9.98;36.36
10115;BME280;5097;43.260;27.812;2022-12-28T10:19:08;101573.53;;;9.53;36.82
10115;BME280;5097;43.260;27.812;2022-12-28T10:21:58;101553.13;;;9.25;37.65
10115;BME280;5097;43.260;27.812;2022-12-28T10:24:43;101565.50;;;9.21;37.54
10115;BME280;5097;43.260;27.812;2022-12-28T10:27:29;101550.16;;;9.39;38.41
10115;BME280;5097;43.260;27.812;2022-12-28T10:30:18;101557.16;;;9.02;39.61
10115;BME280;5097;43.260;27.812;2022-12-28T10:33:02;101567.41;;;9.52;39.40
10115;BME280;5097;43.260;27.812;2022-12-28T10:35:51;101573.75;;;9.44;41.54
10115;BME280;5097;43.260;27.812;2022-12-28T10:38:35;101572.69;;;9.15;38.56
10115;BME280;5097;43.260;27.812;2022-12-28T10:41:19;101577.59;;;9.99;39.04
10115;BME280;5097;43.260;27.812;2022-12-28T10:44:15;101581.38;;;9.89;38.93
10115;BME280;5097;43.260;27.812;2022-12-28T10:47:28;101565.19;;;9.35;37.90
10115;BME280;5097;43.260;27.812;2022-12-28T10:50:40;101570.13;;;9.12;36.96
10115;BME280;5097;43.260;27.812;2022-12-28T10:53:27;101569.09;;;9.19;37.84
10115;BME280;5097;43.260;27.812;2022-12-28T10:56:21;101552.56;;;9.47;38.03
10115;BME280;5097;43.260;27.812;2022-12-28T10:59:18;101562.97;;;9.53;37.57
10115;BME280;5097;43.260;27.812;2022-12-28T11:02:22;101561.56;;;9.39;37.67
10115;BME280;5097;43.260;27.812;2022-12-28T11:05:18;101548.56;;;9.32;37.64
10115;BME280;5097;43.260;27.812;2022-12-28T11:08:03;101540.13;;;9.52;38.89
10115;BME280;5097;43.260;27.812;2022-12-28T11:10:55;101526.66;;;9.28;37.91
10115;BME280;5097;43.260;27.812;2022-12-28T11:13:39;101542.56;;;9.25;38.71
10115;BME280;5097;43.260;27.812;2022-12-28T11:16:23;101553.84;;;8.94;39.02
10115;BME280;5097;43.260;27.812;2022-12-28T11:19:07;101525.22;;;9.16;39.56
10115;BME280;5097;43.260;27.812;2022-12-28T11:21:52;101545.97;;;9.65;39.46
10115;BME280;5097;43.260;27.812;2022-12-28T11:24:38;101538.94;;;9.97;37.67
10115;BME280;5097;43.260;27.812;2022-12-28T11:27:22;101543.13;;;9.72;38.20
10115;BME280;5097;43.260;27.812;2022-12-28T11:30:13;101523.72;;;9.73;37.95
10115;BME280;5097;43.260;27.812;2022-12-28T11:33:01;101529.50;;;9.55;38.70
10115;BME280;5097;43.260;27.812;2022-12-28T11:35:47;101486.53;;;9.17;39.06
10115;BME280;5097;43.260;27.812;2022-12-28T11:38:38;101527.63;;;9.26;39.25
10115;BME280;5097;43.260;27.812;2022-12-28T11:41:41;101526.78;;;8.87;39.10
10115;BME280;5097;43.260;27.812;2022-12-28T11:44:50;101507.75;;;9.11;38.23
10115;BME280;5097;43.260;27.812;2022-12-28T11:47:34;101515.16;;;9.65;38.16
10115;BME280;5097;43.260;27.812;2022-12-28T11:50:48;101517.69;;;10.01;37.54
10115;BME280;5097;43.260;27.812;2022-12-28T11:53:52;101520.78;;;9.86;38.16
10115;BME280;5097;43.260;27.812;2022-12-28T11:56:57;101510.91;;;9.91;37.55
10115;BME280;5097;43.260;27.812;2022-12-28T11:59:41;101474.69;;;9.66;37.15
10115;BME280;5097;43.260;27.812;2022-12-28T12:02:38;101474.22;;;9.82;37.35
10115;BME280;5097;43.260;27.812;2022-12-28T12:05:50;101502.78;;;9.99;37.99
10115;BME280;5097;43.260;27.812;2022-12-28T12:08:40;101491.19;;;10.04;37.91
10115;BME280;5097;43.260;27.812;2022-12-28T12:11:30;101502.78;;;9.99;37.56
10115;BME280;5097;43.260;27.812;2022-12-28T12:14:15;101463.97;;;9.72;37.06
10115;BME280;5097;43.260;27.812;2022-12-28T12:17:02;101456.22;;;9.66;37.30
10115;BME280;5097;43.260;27.812;2022-12-28T12:19:52;101463.03;;;9.73;39.89
10115;BME280;5097;43.260;27.812;2022-12-28T12:22:43;101500.06;;;10.02;37.00
10115;BME280;5097;43.260;27.812;2022-12-28T12:25:35;101492.59;;;9.86;37.43
10115;BME280;5097;43.260;27.812;2022-12-28T12:28:31;101455.19;;;9.39;37.33
10115;BME280;5097;43.260;27.812;2022-12-28T12:31:24;101462.22;;;9.38;37.93
10115;BME280;5097;43.260;27.812;2022-12-28T12:34:14;101454.56;;;9.62;37.12
10115;BME280;5097;43.260;27.812;2022-12-28T12:37:23;101452.13;;;9.54;37.19
10115;BME280;5097;43.260;27.812;2022-12-28T12:40:47;101493.09;;;9.68;37.17
10115;BME280;5097;43.260;27.812;2022-12-28T12:43:44;101463.38;;;9.61;37.08
10115;BME280;5097;43.260;27.812;2022-12-28T12:53:04;101482.81;;;9.24;38.13
10115;BME280;5097;43.260;27.812;2022-12-28T12:55:56;101471.09;;;9.36;37.81
10115;BME280;5097;43.260;27.812;2022-12-28T12:58:50;101514.63;;;9.52;36.92
10115;BME280;5097;43.260;27.812;2022-12-28T13:01:45;101515.41;;;9.56;37.61
10115;BME280;5097;43.260;27.812;2022-12-28T13:04:34;101519.63;;;9.62;40.22
10115;BME280;5097;43.260;27.812;2022-12-28T13:07:19;101520.63;;;9.59;37.76
10115;BME280;5097;43.260;27.812;2022-12-28T13:10:11;101515.81;;;9.41;38.33
10115;BME280;5097;43.260;27.812;2022-12-28T13:12:59;101492.88;;;9.10;39.23
10115;BME280;5097;43.260;27.812;2022-12-28T13:15:44;101499.25;;;9.35;37.18
10115;BME280;5097;43.260;27.812;2022-12-28T13:18:28;101515.41;;;9.56;40.88
10115;BME280;5097;43.260;27.812;2022-12-28T13:21:29;101513.88;;;9.47;39.06
10115;BME280;5097;43.260;27.812;2022-12-28T13:24:19;101512.91;;;9.17;39.66
10115;BME280;5097;43.260;27.812;2022-12-28T13:27:17;101510.38;;;9.12;38.22
10115;BME280;5097;43.260;27.812;2022-12-28T13:30:02;101499.00;;;8.33;39.58
10115;BME280;5097;43.260;27.812;2022-12-28T13:32:51;101511.41;;;8.69;38.44
10115;BME280;5097;43.260;27.812;2022-12-28T13:35:35;101529.06;;;9.01;39.08
10115;BME280;5097;43.260;27.812;2022-12-28T13:38:18;101521.59;;;8.84;39.01
10115;BME280;5097;43.260;27.812;2022-12-28T13:41:08;101516.41;;;8.80;38.81
10115;BME280;5097;43.260;27.812;2022-12-28T13:44:16;101504.59;;;8.60;39.21
10115;BME280;5097;43.260;27.812;2022-12-28T13:47:08;101520.06;;;8.33;38.38
10115;BME280;5097;43.260;27.812;2022-12-28T13:49:57;101517.56;;;7.82;40.30
10115;BME280;5097;43.260;27.812;2022-12-28T13:52:48;101519.41;;;8.22;40.25
10115;BME280;5097;43.260;27.812;2022-12-28T13:55:37;101512.09;;;8.36;39.98
10115;BME280;5097;43.260;27.812;2022-12-28T13:58:29;101499.13;;;8.27;39.50
10115;BME280;5097;43.260;27.812;2022-12-28T14:01:16;101519.06;;;7.95;40.43
10115;BME280;5097;43.260;27.812;2022-12-28T14:04:05;101529.31;;;8.11;40.90
10115;BME280;5097;43.260;27.812;2022-12-28T14:07:12;101533.34;;;8.27;41.45
10115;BME280;5097;43.260;27.812;2022-12-28T14:09:57;101525.69;;;8.16;42.11
10115;BME280;5097;43.260;27.812;2022-12-28T14:12:42;101519.25;;;7.86;41.70
10115;BME280;5097;43.260;27.812;2022-12-28T14:15:27;101516.47;;;7.94;42.36
10115;BME280;5097;43.260;27.812;2022-12-28T14:18:15;101529.53;;;8.00;42.40
10115;BME280;5097;43.260;27.812;2022-12-28T14:21:00;101528.69;;;7.98;42.67
10115;BME280;5097;43.260;27.812;2022-12-28T14:23:46;101533.53;;;7.72;42.54
10115;BME280;5097;43.260;27.812;2022-12-28T14:26:31;101523.00;;;7.72;43.25
10115;BME280;5097;43.260;27.812;2022-12-28T14:29:19;101525.69;;;7.71;42.75
10115;BME280;5097;43.260;27.812;2022-12-28T14:32:06;101522.72;;;7.41;43.21
10115;BME280;5097;43.260;27.812;2022-12-28T14:34:59;101524.31;;;7.50;44.07
10115;BME280;5097;43.260;27.812;2022-12-28T14:37:45;101516.16;;;7.15;44.69
10115;BME280;5097;43.260;27.812;2022-12-28T14:40:34;101516.53;;;7.44;44.44
10115;BME280;5097;43.260;27.812;2022-12-28T14:43:22;101512.22;;;7.41;44.58
10115;BME280;5097;43.260;27.812;2022-12-28T14:46:14;101491.78;;;7.05;45.07
10115;BME280;5097;43.260;27.812;2022-12-28T14:48:59;101523.06;;;7.21;45.28
10115;BME280;5097;43.260;27.812;2022-12-28T14:55:26;101516.38;;;7.00;46.61
10115;BME280;5097;43.260;27.812;2022-12-28T14:58:17;101519.88;;;7.00;46.68
10115;BME280;5097;43.260;27.812;2022-12-28T15:01:05;101518.16;;;6.98;45.82
10115;BME280;5097;43.260;27.812;2022-12-28T15:03:52;101520.25;;;6.77;46.39
10115;BME280;5097;43.260;27.812;2022-12-28T15:06:36;101382.47;;;5.80;46.59
10115;BME280;5097;43.260;27.812;2022-12-28T15:09:20;101522.22;;;6.61;47.24
10115;BME280;5097;43.260;27.812;2022-12-28T15:12:09;101526.84;;;6.44;47.20